sim
Sign-in with your pilot id or email,
or register
Callsign
Passwort

Schedule Details

Flight Number: EWG7755 (1)
Departure: Vienna International Airport (LOWW) at 15:20
Arrival: Hamburg Airport (EDDH) at 16:50
Route: Eurowings Passenger Schedule. Enter filed route here before submitting Pirep.

Weather Information
Getting current METAR information for LOWW 241350Z 30016KT CAVOK 04/M05 Q0999 NOSIG
Getting current METAR information for EDDH 241350Z 17005KT 9999 FEW011 BKN014 03/01 Q0997 TEMPO 4500 -RASN

Schedule Frequency

Route Map